createdAt,value
2023-02-27T00:04:57.548Z,67.72
2023-02-27T00:10:04.844Z,67.28
2023-02-27T00:15:15.530Z,68.95
2023-02-27T00:20:23.618Z,68.76
2023-02-27T00:25:36.117Z,68.93
2023-02-27T00:30:39.523Z,69.51
2023-02-27T00:35:46.010Z,71.05
2023-02-27T00:40:54.307Z,70.82
2023-02-27T00:45:59.556Z,70.50
2023-02-27T00:51:07.549Z,69.94
2023-02-27T00:56:12.738Z,70.54
2023-02-27T01:01:21.282Z,69.73
2023-02-27T01:06:25.861Z,67.82
2023-02-27T01:11:33.311Z,67.85
2023-02-27T01:16:41.604Z,69.18
2023-02-27T01:21:46.994Z,69.82
2023-02-27T01:27:01.338Z,69.10
2023-02-27T01:32:09.783Z,68.45
2023-02-27T01:37:18.555Z,67.22
2023-02-27T01:42:32.727Z,67.09
2023-02-27T01:47:38.680Z,67.07
2023-02-27T01:52:44.561Z,68.27
2023-02-27T01:57:50.364Z,68.32
2023-02-27T02:05:19.622Z,69.91
2023-02-27T02:10:26.691Z,70.33
2023-02-27T02:15:37.378Z,69.86
2023-02-27T02:21:14.012Z,70.87
2023-02-27T02:26:49.806Z,69.39
2023-02-27T02:32:40.077Z,70.82
2023-02-27T02:38:09.208Z,69.95
2023-02-27T02:43:43.195Z,69.18
2023-02-27T02:49:33.656Z,71.11
2023-02-27T02:54:54.618Z,72.05
2023-02-27T03:00:28.603Z,72.59
2023-02-27T03:05:54.107Z,71.76
2023-02-27T03:11:03.586Z,70.20
2023-02-27T03:16:56.019Z,70.23
2023-02-27T03:22:10.185Z,69.05
2023-02-27T03:27:16.811Z,68.39
2023-02-27T03:32:41.097Z,68.58
2023-02-27T03:38:01.018Z,68.68
2023-02-27T03:43:33.205Z,68.68
2023-02-27T03:48:45.692Z,67.31
2023-02-27T03:53:58.694Z,68.59
2023-02-27T03:59:04.786Z,68.37
2023-02-27T04:04:15.543Z,68.21
2023-02-27T04:10:17.463Z,68.97
2023-02-27T04:15:42.009Z,69.52
2023-02-27T04:21:11.272Z,69.07
2023-02-27T04:26:32.441Z,68.42
2023-02-27T04:32:00.058Z,68.60
2023-02-27T04:37:20.705Z,69.49
2023-02-27T04:42:34.220Z,71.05
2023-02-27T04:47:49.317Z,71.55
2023-02-27T04:53:07.134Z,70.57
2023-02-27T04:58:21.371Z,70.10
2023-02-27T05:09:38.697Z,70.92
2023-02-27T05:14:50.116Z,70.88
2023-02-27T05:19:52.642Z,71.05
2023-02-27T05:25:36.014Z,71.78
2023-02-27T05:30:52.846Z,71.14
2023-02-27T05:36:32.582Z,72.05
2023-02-27T05:42:00.541Z,72.92
2023-02-27T05:47:08.141Z,72.52
2023-02-27T05:52:15.495Z,72.09
2023-02-27T05:57:26.052Z,70.84
2023-02-27T06:02:29.422Z,71.57
2023-02-27T06:07:32.776Z,72.47
2023-02-27T06:12:34.715Z,72.56
2023-02-27T06:17:36.616Z,72.70
2023-02-27T06:22:38.626Z,72.47
2023-02-27T06:27:40.727Z,72.42
2023-02-27T06:32:43.016Z,71.71
2023-02-27T06:37:45.265Z,71.67
2023-02-27T06:42:49.607Z,71.65
2023-02-27T06:47:52.372Z,72.10
2023-02-27T06:52:55.420Z,72.10
2023-02-27T06:57:57.408Z,72.53
2023-02-27T07:03:00.458Z,72.71
2023-02-27T07:08:04.049Z,72.61
2023-02-27T07:13:06.165Z,73.33
2023-02-27T07:18:08.254Z,73.09
2023-02-27T07:23:10.846Z,73.00
2023-02-27T07:28:12.909Z,72.36
2023-02-27T07:33:15.414Z,71.91
2023-02-27T07:38:19.097Z,72.34
2023-02-27T07:43:26.732Z,72.66
2023-02-27T07:48:29.656Z,72.07
2023-02-27T07:53:31.788Z,71.99
2023-02-27T07:58:33.792Z,71.70
2023-02-27T08:03:35.936Z,71.20
2023-02-27T08:08:38.235Z,71.49
2023-02-27T08:13:59.568Z,71.47
2023-02-27T08:19:03.326Z,71.55
2023-02-27T08:24:05.440Z,70.61
2023-02-27T08:29:07.864Z,70.21
2023-02-27T08:34:10.947Z,69.43
2023-02-27T08:39:13.691Z,68.71
2023-02-27T08:44:16.541Z,68.67
2023-02-27T08:49:21.436Z,68.01
2023-02-27T08:54:23.840Z,67.05
2023-02-27T08:59:25.843Z,66.63
2023-02-27T09:04:27.892Z,66.37
2023-02-27T09:09:29.972Z,66.24
2023-02-27T09:14:32.157Z,64.26
2023-02-27T09:19:37.184Z,62.37
2023-02-27T09:24:39.307Z,59.95
2023-02-27T09:29:44.362Z,58.60
2023-02-27T09:34:46.390Z,57.68
2023-02-27T09:39:48.624Z,56.26
2023-02-27T09:44:53.964Z,54.95
2023-02-27T09:50:05.356Z,52.53
2023-02-27T09:55:17.369Z,52.29
2023-02-27T10:00:31.174Z,51.75
2023-02-27T10:06:08.909Z,49.86
2023-02-27T10:11:16.720Z,51.20
2023-02-27T10:16:30.121Z,49.92
2023-02-27T10:21:40.664Z,48.60
2023-02-27T10:26:45.020Z,49.96
2023-02-27T10:32:00.252Z,50.25
2023-02-27T10:37:05.355Z,48.04
2023-02-27T10:42:12.525Z,47.02
2023-02-27T10:47:17.703Z,47.04
2023-02-27T10:52:19.802Z,47.34
2023-02-27T10:57:29.398Z,43.38
2023-02-27T11:02:39.089Z,44.68
2023-02-27T11:07:41.657Z,46.19
2023-02-27T11:13:01.985Z,41.42
2023-02-27T11:18:37.880Z,40.10
2023-02-27T11:24:08.065Z,39.19
2023-02-27T11:29:20.474Z,38.82
2023-02-27T11:34:42.826Z,39.32
2023-02-27T11:40:03.137Z,41.81
2023-02-27T11:46:04.248Z,39.41
2023-02-27T11:51:07.827Z,35.23
2023-02-27T11:56:18.600Z,34.65
2023-02-27T12:01:43.708Z,31.58
2023-02-27T12:07:09.622Z,33.53
2023-02-27T12:12:40.507Z,31.97
2023-02-27T12:18:35.681Z,32.18
2023-02-27T12:23:49.511Z,33.49
2023-02-27T12:29:00.491Z,35.67
2023-02-27T12:34:40.936Z,35.30
2023-02-27T12:39:45.130Z,36.58
2023-02-27T12:45:26.844Z,35.04
2023-02-27T12:50:57.855Z,34.18
2023-02-27T12:56:23.003Z,32.98
2023-02-27T13:01:58.726Z,37.46
2023-02-27T13:07:00.684Z,35.92
2023-02-27T13:12:14.742Z,36.52
2023-02-27T13:17:18.835Z,37.03
2023-02-27T13:22:30.530Z,37.09
2023-02-27T13:27:37.588Z,36.23
2023-02-27T13:32:49.326Z,36.21
2023-02-27T13:38:08.161Z,36.74
2023-02-27T13:43:46.485Z,35.63
2023-02-27T13:49:29.710Z,35.90
2023-02-27T13:54:34.648Z,38.34
2023-02-27T13:59:40.132Z,38.32
2023-02-27T14:04:51.642Z,37.23
2023-02-27T14:10:05.489Z,37.01
2023-02-27T14:15:30.582Z,37.21
2023-02-27T14:20:32.751Z,39.42
2023-02-27T14:25:40.571Z,38.49
2023-02-27T14:30:51.482Z,38.65
2023-02-27T14:35:59.170Z,38.08
2023-02-27T14:41:01.238Z,38.15
2023-02-27T14:46:12.659Z,38.52
2023-02-27T14:51:15.571Z,38.50
2023-02-27T14:56:19.915Z,37.90
2023-02-27T15:01:22.183Z,39.69
2023-02-27T15:06:36.556Z,38.85
2023-02-27T15:11:43.156Z,38.79
2023-02-27T15:16:47.183Z,40.09
2023-02-27T15:21:54.283Z,39.68
2023-02-27T15:27:00.870Z,41.09
2023-02-27T15:32:05.927Z,41.39
2023-02-27T15:37:07.999Z,41.04
2023-02-27T15:42:10.314Z,41.78
2023-02-27T15:47:18.736Z,42.89
2023-02-27T15:52:26.132Z,43.75
2023-02-27T15:57:28.486Z,44.00
2023-02-27T16:02:39.656Z,43.59
2023-02-27T16:07:43.350Z,43.34
2023-02-27T16:12:46.589Z,43.89
2023-02-27T16:18:27.419Z,42.79
2023-02-27T16:23:31.977Z,44.28
2023-02-27T16:28:51.063Z,44.28
2023-02-27T16:33:55.024Z,42.91
2023-02-27T16:38:57.221Z,43.57
2023-02-27T16:43:59.234Z,43.41
2023-02-27T16:49:17.887Z,43.05
2023-02-27T16:54:21.197Z,43.74
2023-02-27T16:59:36.330Z,43.64
2023-02-27T17:04:38.366Z,43.63
2023-02-27T17:09:40.348Z,44.28
2023-02-27T17:14:42.659Z,44.44
2023-02-27T17:19:45.252Z,44.21
2023-02-27T17:24:47.024Z,43.46
2023-02-27T17:29:49.137Z,44.31
2023-02-27T17:34:55.621Z,44.61
2023-02-27T17:39:57.577Z,45.50
2023-02-27T17:45:01.316Z,46.13
2023-02-27T17:50:04.944Z,46.08
2023-02-27T17:55:12.805Z,45.88
2023-02-27T18:00:15.477Z,46.09
2023-02-27T18:05:18.171Z,46.72
2023-02-27T18:10:20.170Z,46.36
2023-02-27T18:15:22.375Z,48.95
2023-02-27T18:20:24.412Z,49.84
2023-02-27T18:25:26.699Z,51.91
2023-02-27T18:30:31.243Z,54.26
2023-02-27T18:35:33.371Z,55.52
2023-02-27T18:40:35.364Z,56.01
2023-02-27T18:45:37.982Z,57.62
2023-02-27T18:50:40.293Z,57.38
2023-02-27T18:55:42.435Z,58.36
2023-02-27T19:00:44.427Z,58.38
2023-02-27T19:05:46.816Z,58.24
2023-02-27T19:10:48.971Z,57.42
2023-02-27T19:15:51.489Z,56.59
2023-02-27T19:20:54.832Z,56.90
2023-02-27T19:26:01.091Z,57.28
2023-02-27T19:31:10.925Z,57.42
2023-02-27T19:36:15.465Z,55.82
2023-02-27T19:41:18.448Z,55.71
2023-02-27T19:46:24.347Z,55.84
2023-02-27T19:51:26.779Z,55.03
2023-02-27T19:56:30.053Z,54.43
2023-02-27T20:01:38.898Z,53.82
2023-02-27T20:06:44.112Z,53.70
2023-02-27T20:11:48.353Z,52.69
2023-02-27T20:16:50.552Z,51.70
2023-02-27T20:21:54.441Z,51.32
2023-02-27T20:26:59.096Z,50.07
2023-02-27T20:32:01.627Z,50.25
2023-02-27T20:37:04.066Z,49.58
2023-02-27T20:42:08.250Z,49.75
2023-02-27T20:47:10.501Z,48.03
2023-02-27T20:52:18.624Z,47.42
2023-02-27T20:57:21.109Z,45.03
2023-02-27T21:02:23.342Z,43.98
2023-02-27T21:07:25.612Z,43.13
2023-02-27T21:12:27.622Z,42.83
2023-02-27T21:17:29.686Z,41.83
2023-02-27T21:22:32.561Z,39.95
2023-02-27T21:27:34.695Z,41.71
2023-02-27T21:32:37.010Z,40.61
2023-02-27T21:37:46.788Z,41.78
2023-02-27T21:42:49.619Z,40.01
2023-02-27T21:47:51.793Z,40.26
2023-02-27T21:52:53.811Z,40.45
2023-02-27T21:57:57.071Z,39.79
2023-02-27T22:02:59.294Z,39.60
2023-02-27T22:08:01.357Z,39.11
2023-02-27T22:13:03.389Z,38.25
2023-02-27T22:18:06.570Z,39.33
2023-02-27T22:23:08.853Z,39.09
2023-02-27T22:28:11.005Z,39.04
2023-02-27T22:33:13.224Z,39.10
2023-02-27T22:38:15.288Z,39.40
2023-02-27T22:43:17.645Z,39.50
2023-02-27T22:48:19.657Z,36.62
2023-02-27T22:53:22.716Z,39.25
2023-02-27T22:58:25.300Z,39.52
2023-02-27T23:03:27.305Z,36.77
2023-02-27T23:08:29.539Z,39.85
2023-02-27T23:13:32.225Z,39.90
2023-02-27T23:18:34.351Z,40.23
2023-02-27T23:23:36.768Z,39.68
2023-02-27T23:28:39.116Z,39.89
2023-02-27T23:33:41.384Z,39.66
2023-02-27T23:38:46.531Z,39.93
2023-02-27T23:43:52.631Z,39.55
2023-02-27T23:48:54.616Z,39.91
2023-02-27T23:53:56.544Z,40.33
2023-02-27T23:59:04.518Z,39.53
